createdAt,value
2022-08-22T00:00:58.868Z,10.02
2022-08-22T00:03:02.938Z,10.35
2022-08-22T00:06:15.256Z,9.93
2022-08-22T00:11:29.442Z,9.65
2022-08-22T00:16:38.398Z,10.20
2022-08-22T00:21:48.737Z,8.50
2022-08-22T00:26:57.140Z,9.52
2022-08-22T00:32:10.315Z,9.07
2022-08-22T00:37:24.522Z,10.13
2022-08-22T00:42:53.950Z,8.47
2022-08-22T00:48:07.582Z,9.43
2022-08-22T00:53:32.693Z,10.73
2022-08-22T00:59:22.828Z,10.43
2022-08-22T01:04:50.933Z,8.60
2022-08-22T01:10:05.126Z,10.10
2022-08-22T01:15:11.094Z,11.17
2022-08-22T01:20:53.589Z,9.30
2022-08-22T01:26:31.487Z,11.50
2022-08-22T01:32:19.392Z,12.80
2022-08-22T01:37:59.886Z,9.80
2022-08-22T01:43:18.017Z,9.90
2022-08-22T01:48:26.016Z,14.20
2022-08-22T01:53:43.688Z,13.03
2022-08-22T01:58:58.807Z,11.70
2022-08-22T02:04:10.872Z,9.73
2022-08-22T02:09:28.916Z,10.90
2022-08-22T02:14:44.639Z,10.23
2022-08-22T02:19:55.359Z,9.90
2022-08-22T02:25:09.012Z,11.90
2022-08-22T02:30:17.137Z,8.87
2022-08-22T02:35:26.514Z,9.57
2022-08-22T02:40:35.409Z,12.82
2022-08-22T02:45:47.919Z,8.93
2022-08-22T02:50:57.396Z,11.70
2022-08-22T02:56:04.961Z,10.98
2022-08-22T03:01:24.335Z,12.83
2022-08-22T03:06:39.897Z,12.20
2022-08-22T03:11:48.366Z,13.38
2022-08-22T03:17:02.765Z,10.63
2022-08-22T03:22:11.275Z,10.87
2022-08-22T03:27:32.735Z,10.88
2022-08-22T03:32:53.701Z,10.32
2022-08-22T03:38:14.606Z,12.20
2022-08-22T03:43:39.931Z,12.20
2022-08-22T03:49:13.883Z,11.18
2022-08-22T03:54:48.951Z,9.67
2022-08-22T04:00:22.466Z,11.45
2022-08-22T04:06:11.527Z,9.27
2022-08-22T04:11:51.821Z,11.13
2022-08-22T04:17:33.581Z,10.00
2022-08-22T04:23:12.949Z,14.77
2022-08-22T04:28:20.746Z,11.27
2022-08-22T04:33:30.410Z,12.57
2022-08-22T04:38:40.072Z,13.02
2022-08-22T04:43:49.042Z,12.52
2022-08-22T04:48:56.371Z,14.47
2022-08-22T04:54:39.722Z,13.15
2022-08-22T04:59:43.693Z,14.23
2022-08-22T05:04:51.498Z,10.00
2022-08-22T05:10:11.621Z,10.57
2022-08-22T05:15:23.170Z,13.95
2022-08-22T05:20:28.688Z,13.15
2022-08-22T05:25:37.163Z,15.70
2022-08-22T05:30:41.004Z,12.35
2022-08-22T05:35:50.782Z,14.80
2022-08-22T05:41:03.101Z,17.97
2022-08-22T05:46:09.825Z,18.52
2022-08-22T05:51:18.779Z,13.93
2022-08-22T05:56:33.698Z,16.57
2022-08-22T06:01:44.580Z,13.70
2022-08-22T06:06:55.027Z,13.38
2022-08-22T06:12:01.696Z,15.18
2022-08-22T06:17:11.250Z,14.27
2022-08-22T06:22:18.744Z,13.73
2022-08-22T06:27:25.597Z,12.60
2022-08-22T06:32:59.002Z,10.67
2022-08-22T06:38:00.571Z,11.27
2022-08-22T06:43:13.245Z,11.05
2022-08-22T06:48:19.416Z,10.13
2022-08-22T06:53:25.886Z,10.20
2022-08-22T06:58:34.471Z,9.35
2022-08-22T07:03:41.994Z,8.77
2022-08-22T07:08:45.452Z,9.70
2022-08-22T07:14:01.782Z,10.98
2022-08-22T07:19:04.618Z,11.85
2022-08-22T07:24:08.765Z,7.97
2022-08-22T07:29:23.180Z,8.63
2022-08-22T07:34:44.665Z,8.23
2022-08-22T07:39:54.010Z,9.47
2022-08-22T07:45:10.169Z,7.37
2022-08-22T07:50:21.867Z,10.98
2022-08-22T07:55:27.064Z,9.27
2022-08-22T08:00:32.471Z,8.13
2022-08-22T08:05:39.453Z,9.63
2022-08-22T08:10:42.405Z,8.80
2022-08-22T08:15:47.025Z,7.77
2022-08-22T08:20:52.805Z,14.18
2022-08-22T08:26:04.323Z,7.28
2022-08-22T08:31:20.471Z,7.37
2022-08-22T08:36:31.308Z,7.57
2022-08-22T08:42:31.537Z,8.18
2022-08-22T08:47:49.580Z,9.18
2022-08-22T08:53:27.023Z,8.53
2022-08-22T08:58:43.335Z,8.40
2022-08-22T09:04:21.384Z,11.40
2022-08-22T09:09:38.577Z,7.97
2022-08-22T09:15:19.743Z,7.40
2022-08-22T09:20:48.657Z,9.02
2022-08-22T09:25:56.648Z,7.77
2022-08-22T09:31:32.841Z,10.20
2022-08-22T09:37:06.485Z,9.90
2022-08-22T09:42:21.091Z,10.20
2022-08-22T09:47:32.730Z,9.43
2022-08-22T09:52:54.708Z,7.63
2022-08-22T09:58:05.879Z,8.00
2022-08-22T10:03:20.481Z,8.33
2022-08-22T10:08:50.755Z,6.65
2022-08-22T10:14:01.529Z,8.98
2022-08-22T10:19:18.734Z,7.70
2022-08-22T10:24:43.858Z,8.03
2022-08-22T10:30:04.977Z,8.02
2022-08-22T10:35:19.504Z,8.27
2022-08-22T10:40:29.937Z,8.27
2022-08-22T10:45:36.584Z,6.75
2022-08-22T10:50:44.472Z,7.30
2022-08-22T10:55:54.049Z,7.20
2022-08-22T11:01:02.540Z,7.00
2022-08-22T11:06:30.605Z,7.50
2022-08-22T11:11:43.543Z,7.60
2022-08-22T11:16:58.022Z,6.63
2022-08-22T11:22:06.892Z,5.03
2022-08-22T11:27:21.949Z,5.72
2022-08-22T11:32:49.676Z,7.33
2022-08-22T11:38:01.120Z,7.80
2022-08-22T11:43:32.568Z,8.20
2022-08-22T11:48:48.655Z,5.73
2022-08-22T11:54:01.985Z,6.53
2022-08-22T11:59:16.218Z,6.22
2022-08-22T12:04:28.409Z,5.53
2022-08-22T12:09:55.696Z,5.93
2022-08-22T12:15:09.147Z,8.75
2022-08-22T12:20:28.305Z,6.70
2022-08-22T12:26:01.057Z,5.97
2022-08-22T12:31:13.731Z,7.72
2022-08-22T12:36:45.912Z,9.07
2022-08-22T12:42:21.616Z,6.53
2022-08-22T12:47:42.107Z,6.63
2022-08-22T12:52:58.676Z,5.78
2022-08-22T12:58:12.637Z,9.30
2022-08-22T13:03:25.815Z,7.30
2022-08-22T13:08:32.481Z,6.93
2022-08-22T13:13:40.458Z,7.30
2022-08-22T13:18:56.677Z,7.27
2022-08-22T13:24:05.771Z,10.40
2022-08-22T13:29:27.407Z,6.30
2022-08-22T13:34:49.225Z,7.87
2022-08-22T13:39:56.104Z,7.03
2022-08-22T13:45:04.465Z,7.25
2022-08-22T13:50:15.000Z,6.57
2022-08-22T13:55:21.087Z,7.27
2022-08-22T14:00:59.769Z,8.93
2022-08-22T14:06:37.530Z,6.38
2022-08-22T14:11:45.615Z,7.87
2022-08-22T14:16:51.750Z,7.35
2022-08-22T14:22:00.187Z,8.68
2022-08-22T14:27:07.150Z,8.50
2022-08-22T14:32:35.044Z,7.70
2022-08-22T14:37:44.400Z,8.27
2022-08-22T14:42:55.582Z,8.00
2022-08-22T14:48:30.556Z,8.37
2022-08-22T14:53:30.181Z,7.53
2022-08-22T14:58:37.234Z,8.38
2022-08-22T15:03:42.578Z,6.90
2022-08-22T15:08:51.635Z,8.35
2022-08-22T15:14:04.058Z,7.32
2022-08-22T15:19:26.432Z,8.57
2022-08-22T15:24:32.067Z,10.07
2022-08-22T15:29:51.683Z,7.90
2022-08-22T15:35:03.375Z,9.37
2022-08-22T15:40:13.186Z,9.80
2022-08-22T15:45:21.368Z,7.10
2022-08-22T15:50:35.986Z,7.43
2022-08-22T15:56:19.727Z,8.23
2022-08-22T16:01:25.486Z,8.38
2022-08-22T16:06:45.076Z,8.55
2022-08-22T16:11:55.908Z,9.43
2022-08-22T16:17:03.950Z,8.02
2022-08-22T16:22:16.957Z,9.13
2022-08-22T16:27:25.676Z,7.00
2022-08-22T16:32:29.340Z,7.83
2022-08-22T16:37:45.953Z,8.82
2022-08-22T16:43:10.578Z,11.50
2022-08-22T16:48:39.551Z,8.57
2022-08-22T16:54:08.719Z,9.45
2022-08-22T16:59:29.594Z,11.13
2022-08-22T17:04:52.052Z,7.83
2022-08-22T17:10:12.370Z,7.78
2022-08-22T17:15:28.035Z,8.05
2022-08-22T17:20:44.292Z,8.33
2022-08-22T17:25:59.662Z,11.93
2022-08-22T17:31:11.809Z,6.97
2022-08-22T17:36:26.994Z,7.97
2022-08-22T17:41:39.539Z,8.03
2022-08-22T17:46:49.586Z,8.55
2022-08-22T17:51:58.626Z,8.88
2022-08-22T17:57:08.193Z,8.93
2022-08-22T18:02:25.448Z,8.13
2022-08-22T18:07:38.317Z,9.82
2022-08-22T18:12:47.027Z,8.33
2022-08-22T18:17:56.724Z,7.50
2022-08-22T18:23:04.429Z,7.40
2022-08-22T18:28:13.878Z,9.75
2022-08-22T18:33:24.316Z,9.30
2022-08-22T18:38:33.224Z,9.43
2022-08-22T18:43:39.299Z,11.38
2022-08-22T18:49:05.414Z,6.70
2022-08-22T18:54:37.100Z,6.88
2022-08-22T18:59:54.782Z,9.18
2022-08-22T19:05:42.642Z,9.70
2022-08-22T19:10:55.106Z,6.70
2022-08-22T19:16:14.440Z,8.55
2022-08-22T19:21:40.819Z,9.48
2022-08-22T19:26:48.152Z,10.27
2022-08-22T19:31:54.533Z,8.45
2022-08-22T19:37:32.255Z,10.07
2022-08-22T19:42:39.999Z,9.13
2022-08-22T19:47:44.478Z,7.57
2022-08-22T19:53:05.478Z,9.88
2022-08-22T19:58:18.803Z,10.00
2022-08-22T20:03:45.719Z,9.27
2022-08-22T20:08:58.798Z,9.23
2022-08-22T20:14:30.096Z,9.93
2022-08-22T20:20:16.442Z,9.47
2022-08-22T20:25:33.386Z,9.52
2022-08-22T20:30:44.240Z,11.13
2022-08-22T20:35:54.418Z,8.17
2022-08-22T20:41:11.740Z,10.52
2022-08-22T20:46:36.386Z,8.82
2022-08-22T20:51:39.214Z,9.00
2022-08-22T20:56:53.623Z,10.70
2022-08-22T21:02:07.756Z,9.45
2022-08-22T21:07:10.658Z,8.65
2022-08-22T21:12:13.901Z,10.10
2022-08-22T21:17:27.102Z,9.80
2022-08-22T21:22:33.554Z,9.77
2022-08-22T21:27:36.610Z,11.67
2022-08-22T21:32:44.287Z,9.50
2022-08-22T21:37:47.982Z,9.70
2022-08-22T21:43:02.522Z,11.47
2022-08-22T21:48:34.257Z,11.33
2022-08-22T21:53:37.076Z,10.68
2022-08-22T21:58:43.385Z,10.32
2022-08-22T22:03:47.542Z,11.53
2022-08-22T22:08:50.696Z,13.90
2022-08-22T22:13:53.515Z,9.85
2022-08-22T22:18:57.915Z,11.27
2022-08-22T22:24:00.710Z,12.93
2022-08-22T22:29:04.570Z,9.07
2022-08-22T22:34:08.700Z,10.77
2022-08-22T22:39:11.833Z,13.73
2022-08-22T22:44:14.633Z,9.95
2022-08-22T22:49:19.327Z,11.45
2022-08-22T22:54:27.336Z,10.83
2022-08-22T22:59:30.319Z,12.65
2022-08-22T23:04:39.352Z,10.60
2022-08-22T23:09:44.966Z,11.07
2022-08-22T23:14:48.121Z,12.05
2022-08-22T23:19:53.064Z,10.05
2022-08-22T23:24:55.892Z,10.90
2022-08-22T23:29:58.701Z,12.67
2022-08-22T23:35:02.920Z,12.90
2022-08-22T23:40:09.318Z,15.80
2022-08-22T23:45:12.261Z,12.07
2022-08-22T23:50:16.438Z,12.60
2022-08-22T23:55:19.363Z,13.27
